Avawam, Kentucky
Current Conditions -  °F | °C
As of 12:53 AM on Friday 28 Nov 2014 (Local Time) from KJKL Reporting Station
Overcast Overcast  
Wind Chill: 21°   Ceiling: 4100
Heat Index: 28°   Visibility: 10mi
Dew Point: 20°   Wind: 7mph
Humidity: 72%   Direction: 270°W
Pressure: 30.35"   Gusts: NA
Location:  37.22°N, 83.27°W
Report Text: KJKL 280553Z AUTO 27006KT 10SM OVC041 M02/M07 A3035 RMK AO2 SLP290 60000 T10221067 11011 21022 56003
Loading
Personal Weather Stations






























Interactive Weather Map New forecast layout! Learn more

10-Day Weather Forecast

Advertisements
Track Severe Weather on mobile